createdAt,value
2022-11-09T00:00:42.517Z,94697.03
2022-11-09T00:03:09.436Z,94697.19
2022-11-09T00:05:36.060Z,94696.06
2022-11-09T00:08:06.602Z,94693.53
2022-11-09T00:10:33.814Z,94698.28
2022-11-09T00:13:01.037Z,94699.16
2022-11-09T00:15:28.343Z,94701.41
2022-11-09T00:17:55.031Z,94705.25
2022-11-09T00:20:21.699Z,94695.22
2022-11-09T00:22:49.304Z,94702.59
2022-11-09T00:25:16.166Z,94704.00
2022-11-09T00:27:42.875Z,94704.59
2022-11-09T00:30:12.831Z,94711.88
2022-11-09T00:32:39.399Z,94706.50
2022-11-09T00:35:06.528Z,94705.41
2022-11-09T00:37:33.283Z,94699.66
2022-11-09T00:40:00.048Z,94700.00
2022-11-09T00:42:26.700Z,94700.47
2022-11-09T00:44:53.411Z,94693.31
2022-11-09T00:47:20.220Z,94691.63
2022-11-09T00:49:47.151Z,94692.22
2022-11-09T00:52:13.805Z,94691.06
2022-11-09T00:54:40.443Z,94698.44
2022-11-09T00:57:07.067Z,94699.47
2022-11-09T00:59:33.768Z,94707.41
2022-11-09T01:02:00.370Z,94704.31
2022-11-09T01:04:26.972Z,94702.31
2022-11-09T01:06:53.622Z,94696.16
2022-11-09T01:09:34.468Z,94706.94
2022-11-09T01:12:01.574Z,94708.53
2022-11-09T01:14:28.132Z,94707.88
2022-11-09T01:16:54.708Z,94714.09
2022-11-09T01:19:21.287Z,94702.63
2022-11-09T01:21:48.031Z,94701.03
2022-11-09T01:24:14.579Z,94704.03
2022-11-09T01:26:41.195Z,94699.53
2022-11-09T01:29:07.754Z,94693.13
2022-11-09T01:31:34.366Z,94698.16
2022-11-09T01:34:00.946Z,94689.34
2022-11-09T01:36:27.563Z,94688.28
2022-11-09T01:38:54.338Z,94694.13
2022-11-09T01:41:26.986Z,94686.44
2022-11-09T01:44:13.718Z,94687.94
2022-11-09T01:47:06.503Z,94683.41
2022-11-09T01:49:48.946Z,94677.84
2022-11-09T01:52:21.336Z,94679.53
2022-11-09T01:54:52.246Z,94682.78
2022-11-09T01:57:30.334Z,94678.19
2022-11-09T02:00:10.247Z,94681.75
2022-11-09T02:02:40.958Z,94685.97
2022-11-09T02:05:10.919Z,94691.03
2022-11-09T02:07:38.877Z,94694.78
2022-11-09T02:10:16.434Z,94687.63
2022-11-09T02:12:44.746Z,94687.88
2022-11-09T02:15:12.672Z,94688.75
2022-11-09T02:17:43.164Z,94690.84
2022-11-09T02:20:12.642Z,94692.56
2022-11-09T02:22:41.535Z,94688.66
2022-11-09T02:25:12.813Z,94696.88
2022-11-09T02:27:40.401Z,94689.09
2022-11-09T02:30:07.727Z,94696.00
2022-11-09T02:32:34.370Z,94696.25
2022-11-09T02:35:01.060Z,94692.38
2022-11-09T02:37:31.970Z,94690.63
2022-11-09T02:40:01.196Z,94691.72
2022-11-09T02:42:28.062Z,94686.34
2022-11-09T02:44:58.553Z,94689.28
2022-11-09T02:47:25.419Z,94690.16
2022-11-09T02:49:52.438Z,94691.09
2022-11-09T02:52:19.262Z,94695.16
2022-11-09T02:54:46.207Z,94699.13
2022-11-09T02:57:12.855Z,94695.13
2022-11-09T02:59:39.595Z,94693.25
2022-11-09T03:02:06.222Z,94686.97
2022-11-09T03:04:32.935Z,94686.03
2022-11-09T03:06:59.572Z,94692.22
2022-11-09T03:09:26.251Z,94700.34
2022-11-09T03:11:52.846Z,94703.91
2022-11-09T03:14:19.470Z,94701.06
2022-11-09T03:16:50.237Z,94707.41
2022-11-09T03:19:17.464Z,94698.47
2022-11-09T03:21:44.020Z,94699.03
2022-11-09T03:24:10.598Z,94700.22
2022-11-09T03:26:37.203Z,94705.56
2022-11-09T03:29:03.875Z,94700.56
2022-11-09T03:31:30.439Z,94703.69
2022-11-09T03:33:57.041Z,94703.78
2022-11-09T03:36:23.596Z,94709.69
2022-11-09T03:38:50.164Z,94703.47
2022-11-09T03:41:16.782Z,94701.84
2022-11-09T03:43:43.565Z,94703.97
2022-11-09T03:46:10.116Z,94711.13
2022-11-09T03:48:36.673Z,94704.97
2022-11-09T03:51:03.299Z,94709.28
2022-11-09T03:53:30.038Z,94715.78
2022-11-09T03:55:57.966Z,94709.69
2022-11-09T03:58:24.836Z,94709.59
2022-11-09T04:00:51.900Z,94709.84
2022-11-09T04:03:18.805Z,94712.06
2022-11-09T04:05:45.668Z,94710.72
2022-11-09T04:08:12.216Z,94694.91
2022-11-09T04:10:38.782Z,94707.78
2022-11-09T04:13:05.414Z,94705.69
2022-11-09T04:15:31.983Z,94712.28
2022-11-09T04:17:59.955Z,94705.78
2022-11-09T04:20:28.590Z,94711.25
2022-11-09T04:22:57.341Z,94710.38
2022-11-09T04:25:26.071Z,94716.19
2022-11-09T04:27:59.540Z,94710.50
2022-11-09T04:30:28.322Z,94715.50
2022-11-09T04:32:59.419Z,94714.28
2022-11-09T04:35:27.852Z,94720.84
2022-11-09T04:38:03.101Z,94714.94
2022-11-09T04:40:32.046Z,94722.19
2022-11-09T04:43:06.620Z,94706.91
2022-11-09T04:45:34.956Z,94710.81
2022-11-09T04:48:03.610Z,94713.47
2022-11-09T04:50:30.751Z,94721.22
2022-11-09T04:53:12.147Z,94726.22
2022-11-09T04:55:39.315Z,94719.97
2022-11-09T04:58:06.384Z,94714.59
2022-11-09T05:00:33.612Z,94713.59
2022-11-09T05:03:05.140Z,94726.53
2022-11-09T05:05:34.537Z,94719.63
2022-11-09T05:08:01.717Z,94729.44
2022-11-09T05:10:28.553Z,94721.72
2022-11-09T05:13:10.210Z,94723.31
2022-11-09T05:15:36.905Z,94729.53
2022-11-09T05:18:04.871Z,94730.47
2022-11-09T05:20:43.506Z,94732.34
2022-11-09T05:23:28.829Z,94734.00
2022-11-09T05:25:55.412Z,94739.47
2022-11-09T05:28:22.051Z,94739.94
2022-11-09T05:30:48.599Z,94740.72
2022-11-09T05:33:17.393Z,94739.34
2022-11-09T05:35:44.193Z,94750.38
2022-11-09T05:38:10.755Z,94745.59
2022-11-09T05:40:37.356Z,94749.41
2022-11-09T05:43:06.387Z,94752.72
2022-11-09T05:45:48.291Z,94741.50
2022-11-09T05:48:17.278Z,94754.00
2022-11-09T05:50:44.770Z,94748.63
2022-11-09T05:53:12.476Z,94758.31
2022-11-09T05:55:40.049Z,94758.09
2022-11-09T05:58:07.103Z,94771.41
2022-11-09T06:00:33.752Z,94770.63
2022-11-09T06:03:08.915Z,94767.03
2022-11-09T06:05:37.192Z,94766.81
2022-11-09T06:08:10.036Z,94775.38
2022-11-09T06:10:37.226Z,94779.28
2022-11-09T06:13:04.032Z,94782.63
2022-11-09T06:15:31.531Z,94783.41
2022-11-09T06:17:59.257Z,94780.50
2022-11-09T06:20:27.371Z,94781.22
2022-11-09T06:23:03.125Z,94778.78
2022-11-09T06:25:31.715Z,94775.84
2022-11-09T06:27:58.569Z,94782.16
2022-11-09T06:30:25.298Z,94781.31
2022-11-09T06:32:51.929Z,94773.63
2022-11-09T06:35:18.506Z,94772.03
2022-11-09T06:37:45.086Z,94775.88
2022-11-09T06:40:12.847Z,94779.56
2022-11-09T06:42:39.511Z,94779.94
2022-11-09T06:45:06.717Z,94773.59
2022-11-09T06:47:33.359Z,94779.66
2022-11-09T06:50:00.084Z,94777.50
2022-11-09T06:52:26.731Z,94774.66
2022-11-09T06:54:53.361Z,94784.19
2022-11-09T06:57:20.001Z,94774.06
2022-11-09T06:59:46.618Z,94782.41
2022-11-09T07:02:17.684Z,94772.50
2022-11-09T07:04:44.377Z,94777.19
2022-11-09T07:07:11.187Z,94779.44
2022-11-09T07:09:37.842Z,94773.72
2022-11-09T07:12:04.723Z,94768.63
2022-11-09T07:14:31.372Z,94774.31
2022-11-09T07:17:00.235Z,94775.63
2022-11-09T07:19:28.872Z,94775.38
2022-11-09T07:21:56.295Z,94769.91
2022-11-09T07:24:23.753Z,94771.69
2022-11-09T07:26:50.528Z,94780.22
2022-11-09T07:29:17.281Z,94775.00
2022-11-09T07:31:44.101Z,94776.59
2022-11-09T07:34:10.782Z,94768.13
2022-11-09T07:36:37.402Z,94775.16
2022-11-09T07:39:04.592Z,94769.34
2022-11-09T07:41:34.617Z,94772.94
2022-11-09T07:44:02.126Z,94770.59
2022-11-09T07:46:28.781Z,94768.84
2022-11-09T07:48:55.379Z,94772.47
2022-11-09T07:51:22.114Z,94771.22
2022-11-09T07:53:48.811Z,94779.78
2022-11-09T07:56:15.572Z,94776.09
2022-11-09T07:58:42.195Z,94774.22
2022-11-09T08:01:10.696Z,94775.13
2022-11-09T08:03:37.776Z,94775.03
2022-11-09T08:06:04.580Z,94769.03
2022-11-09T08:08:31.310Z,94778.56
2022-11-09T08:10:58.557Z,94772.16
2022-11-09T08:13:25.854Z,94776.94
2022-11-09T08:15:52.497Z,94772.22
2022-11-09T08:18:21.174Z,94780.91
2022-11-09T08:20:48.947Z,94768.25
2022-11-09T08:23:18.417Z,94771.44
2022-11-09T08:25:45.399Z,94766.78
2022-11-09T08:28:15.073Z,94769.31
2022-11-09T08:30:43.628Z,94767.78
2022-11-09T08:33:11.198Z,94767.47
2022-11-09T08:35:37.941Z,94771.91
2022-11-09T08:38:06.286Z,94778.09
2022-11-09T08:40:34.531Z,94768.75
2022-11-09T08:43:06.172Z,94775.84
2022-11-09T08:45:35.001Z,94776.81
2022-11-09T08:48:03.122Z,94772.94
2022-11-09T08:50:30.903Z,94777.22
2022-11-09T08:52:57.879Z,94770.63
2022-11-09T08:55:24.928Z,94775.50
2022-11-09T08:58:00.320Z,94777.63
2022-11-09T09:00:27.860Z,94778.84
2022-11-09T09:02:54.695Z,94771.44
2022-11-09T09:05:25.017Z,94772.97
2022-11-09T09:07:51.628Z,94781.06
2022-11-09T09:10:18.425Z,94776.44
2022-11-09T09:12:45.263Z,94771.78
2022-11-09T09:15:11.842Z,94773.81
2022-11-09T09:17:38.439Z,94770.00
2022-11-09T09:20:05.704Z,94772.69
2022-11-09T09:22:36.013Z,94771.47
2022-11-09T09:25:03.396Z,94769.41
2022-11-09T09:27:30.127Z,94758.59
2022-11-09T09:29:57.260Z,94761.16
2022-11-09T09:32:26.989Z,94762.03
2022-11-09T09:34:53.610Z,94765.69
2022-11-09T09:37:20.219Z,94757.53
2022-11-09T09:39:46.803Z,94763.78
2022-11-09T09:42:25.029Z,94757.16
2022-11-09T09:45:06.096Z,94753.25
2022-11-09T09:47:46.104Z,94751.44
2022-11-09T09:50:45.533Z,94757.75
2022-11-09T09:53:32.540Z,94752.31
2022-11-09T09:56:08.228Z,94740.16
2022-11-09T09:58:35.146Z,94737.41
2022-11-09T10:01:15.870Z,94739.06
2022-11-09T10:03:42.957Z,94735.50
2022-11-09T10:06:38.196Z,94733.75
2022-11-09T10:09:23.849Z,94734.06
2022-11-09T10:12:01.425Z,94730.94
2022-11-09T10:14:46.759Z,94735.28
2022-11-09T10:17:45.601Z,94726.06
2022-11-09T10:20:39.417Z,94726.53
2022-11-09T10:23:12.128Z,94721.88
2022-11-09T10:28:37.968Z,94717.41
2022-11-09T10:31:19.747Z,94716.25
2022-11-09T10:33:52.814Z,94720.84
2022-11-09T10:36:51.870Z,94713.19
2022-11-09T10:39:19.808Z,94711.09
2022-11-09T10:41:46.929Z,94705.03
2022-11-09T10:44:17.486Z,94700.53
2022-11-09T10:47:14.996Z,94700.50
2022-11-09T10:49:41.715Z,94694.81
2022-11-09T10:52:43.025Z,94701.75
2022-11-09T10:55:23.810Z,94692.53
2022-11-09T10:58:02.185Z,94688.41
2022-11-09T11:00:29.087Z,94681.81
2022-11-09T11:02:56.137Z,94679.63
2022-11-09T11:05:26.250Z,94677.41
2022-11-09T11:07:52.989Z,94678.66
2022-11-09T11:10:21.140Z,94666.94
2022-11-09T11:13:00.280Z,94678.00
2022-11-09T11:15:34.304Z,94666.88
2022-11-09T11:18:02.637Z,94666.13
2022-11-09T11:20:32.395Z,94671.97
2022-11-09T11:23:17.800Z,94661.22
2022-11-09T11:25:53.508Z,94662.72
2022-11-09T11:28:38.029Z,94655.56
2022-11-09T11:31:07.362Z,94657.75
2022-11-09T11:33:34.699Z,94660.06
2022-11-09T11:36:20.926Z,94660.13
2022-11-09T11:39:29.842Z,94653.59
2022-11-09T11:42:02.591Z,94646.97
2022-11-09T11:44:45.207Z,94646.75
2022-11-09T11:47:34.019Z,94644.56
2022-11-09T11:50:46.169Z,94641.00
2022-11-09T11:53:21.786Z,94643.16
2022-11-09T11:56:04.625Z,94642.50
2022-11-09T11:58:34.088Z,94640.81
2022-11-09T12:01:17.746Z,94634.56
2022-11-09T12:04:12.097Z,94639.75
2022-11-09T12:06:48.578Z,94639.47
2022-11-09T12:09:43.630Z,94632.53
2022-11-09T12:12:32.474Z,94631.94
2022-11-09T12:15:26.675Z,94634.28
2022-11-09T12:18:08.319Z,94630.38
2022-11-09T12:20:40.646Z,94629.13
2022-11-09T12:23:38.023Z,94623.81
2022-11-09T12:26:23.868Z,94617.78
2022-11-09T12:29:16.445Z,94630.00
2022-11-09T12:32:08.812Z,94617.78
2022-11-09T12:35:01.529Z,94623.19
2022-11-09T12:37:36.910Z,94618.34
2022-11-09T12:40:14.055Z,94610.44
2022-11-09T12:43:02.603Z,94612.03
2022-11-09T12:45:38.977Z,94613.13
2022-11-09T12:48:25.826Z,94610.13
2022-11-09T12:50:53.591Z,94616.78
2022-11-09T12:53:24.481Z,94612.50
2022-11-09T12:55:54.118Z,94601.47
2022-11-09T12:58:32.622Z,94609.41
2022-11-09T13:01:01.985Z,94607.22
2022-11-09T13:03:31.623Z,94603.38
2022-11-09T13:06:13.988Z,94609.41
2022-11-09T13:08:43.314Z,94607.88
2022-11-09T13:11:17.388Z,94603.69
2022-11-09T13:13:44.700Z,94603.69
2022-11-09T13:16:33.348Z,94602.69
2022-11-09T13:19:03.551Z,94607.00
2022-11-09T13:21:30.061Z,94598.00
2022-11-09T13:24:01.954Z,94608.38
2022-11-09T13:26:33.427Z,94601.47
2022-11-09T13:29:15.412Z,94607.22
2022-11-09T13:32:11.464Z,94601.75
2022-11-09T13:34:43.931Z,94604.78
2022-11-09T13:37:55.507Z,94605.97
2022-11-09T13:40:30.930Z,94601.72
2022-11-09T13:43:04.482Z,94597.78
2022-11-09T13:45:56.150Z,94597.78
2022-11-09T13:48:45.697Z,94606.97
2022-11-09T13:51:16.546Z,94602.28
2022-11-09T13:53:53.511Z,94608.03
2022-11-09T13:56:35.337Z,94603.09
2022-11-09T13:59:18.773Z,94605.69
2022-11-09T14:01:52.908Z,94602.97
2022-11-09T14:04:22.648Z,94607.97
2022-11-09T14:06:50.828Z,94604.09
2022-11-09T14:09:20.349Z,94605.19
2022-11-09T14:11:46.954Z,94597.41
2022-11-09T14:15:17.720Z,94600.47
2022-11-09T14:17:53.311Z,94588.78
2022-11-09T14:21:07.343Z,94601.53
2022-11-09T14:23:38.200Z,94606.09
2022-11-09T14:26:09.443Z,94603.44
2022-11-09T14:28:48.263Z,94603.38
2022-11-09T14:31:26.390Z,94608.28
2022-11-09T14:34:04.681Z,94613.97
2022-11-09T14:36:35.025Z,94608.63
2022-11-09T14:39:05.001Z,94604.63
2022-11-09T14:41:31.755Z,94606.91
2022-11-09T14:44:00.720Z,94599.19
2022-11-09T14:46:29.896Z,94613.13
2022-11-09T14:49:01.435Z,94615.38
2022-11-09T14:51:33.460Z,94617.19
2022-11-09T14:54:01.852Z,94617.50
2022-11-09T14:56:33.970Z,94620.50
2022-11-09T14:59:04.455Z,94613.47
2022-11-09T15:01:37.927Z,94617.66
2022-11-09T15:04:12.641Z,94616.31
2022-11-09T15:07:01.037Z,94625.78
2022-11-09T15:10:02.024Z,94614.75
2022-11-09T15:12:31.946Z,94627.00
2022-11-09T15:15:04.156Z,94635.31
2022-11-09T15:18:06.312Z,94629.69
2022-11-09T15:20:34.609Z,94626.41
2022-11-09T15:23:08.895Z,94633.84
2022-11-09T15:26:12.202Z,94635.25
2022-11-09T15:32:21.455Z,94632.03
2022-11-09T15:38:06.868Z,94623.00
2022-11-09T15:40:36.527Z,94625.44
2022-11-09T15:43:03.123Z,94625.34
2022-11-09T15:45:29.776Z,94630.44
2022-11-09T15:47:56.602Z,94630.81
2022-11-09T15:50:27.882Z,94633.41
2022-11-09T15:52:54.521Z,94638.75
2022-11-09T15:55:23.338Z,94636.06
2022-11-09T15:57:50.941Z,94634.88
2022-11-09T16:00:21.231Z,94636.41
2022-11-09T16:02:48.548Z,94642.50
2022-11-09T16:05:15.881Z,94643.63
2022-11-09T16:07:49.968Z,94639.81
2022-11-09T16:10:20.351Z,94636.22
2022-11-09T16:12:47.255Z,94639.81
2022-11-09T16:15:14.249Z,94645.63
2022-11-09T16:17:41.867Z,94640.84
2022-11-09T16:20:10.616Z,94647.66
2022-11-09T16:22:37.733Z,94651.19
2022-11-09T16:25:04.625Z,94645.38
2022-11-09T16:28:01.081Z,94647.06
2022-11-09T16:30:19.377Z,94647.38
2022-11-09T16:32:46.096Z,94650.66
2022-11-09T16:35:26.695Z,94647.28
2022-11-09T16:37:55.265Z,94647.78
2022-11-09T16:40:22.896Z,94643.53
2022-11-09T16:42:51.422Z,94653.22
2022-11-09T16:45:19.667Z,94654.53
2022-11-09T16:47:50.553Z,94661.34
2022-11-09T16:50:17.572Z,94656.31
2022-11-09T16:53:01.699Z,94662.22
2022-11-09T16:59:27.113Z,94659.75
2022-11-09T17:02:09.553Z,94663.63
2022-11-09T17:04:36.172Z,94669.63
2022-11-09T17:07:02.897Z,94672.09
2022-11-09T17:09:44.368Z,94678.91
2022-11-09T17:12:11.025Z,94669.34
2022-11-09T17:14:55.589Z,94677.47
2022-11-09T17:17:22.978Z,94678.75
2022-11-09T17:19:49.739Z,94673.38
2022-11-09T17:22:17.029Z,94675.72
2022-11-09T17:24:43.682Z,94676.16
2022-11-09T17:27:11.536Z,94673.38
2022-11-09T17:29:39.043Z,94671.97
2022-11-09T17:32:07.697Z,94680.25
2022-11-09T17:34:50.260Z,94682.53
2022-11-09T17:37:16.907Z,94686.25
2022-11-09T17:39:43.553Z,94689.94
2022-11-09T17:42:10.223Z,94691.19
2022-11-09T17:44:37.398Z,94697.09
2022-11-09T17:47:05.194Z,94705.34
2022-11-09T17:49:32.082Z,94693.03
2022-11-09T17:51:58.886Z,94691.84
2022-11-09T17:54:25.600Z,94694.34
2022-11-09T17:56:52.236Z,94688.44
2022-11-09T17:59:18.867Z,94696.03
2022-11-09T18:01:45.506Z,94696.44
2022-11-09T18:04:12.250Z,94690.53
2022-11-09T18:06:39.025Z,94691.38
2022-11-09T18:11:52.692Z,94696.31
2022-11-09T18:14:19.606Z,94699.06
2022-11-09T18:16:49.192Z,94697.50
2022-11-09T18:19:15.830Z,94696.97
2022-11-09T18:21:45.380Z,94709.50
2022-11-09T18:24:12.073Z,94717.47
2022-11-09T18:26:42.239Z,94714.78
2022-11-09T18:29:08.953Z,94720.72
2022-11-09T18:31:37.149Z,94714.44
2022-11-09T18:34:04.636Z,94723.34
2022-11-09T18:36:34.463Z,94721.94
2022-11-09T18:39:03.183Z,94717.75
2022-11-09T18:41:29.928Z,94720.88
2022-11-09T18:43:59.249Z,94726.50
2022-11-09T18:46:31.442Z,94719.84
2022-11-09T18:48:59.105Z,94718.63
2022-11-09T18:51:28.250Z,94729.22
2022-11-09T18:53:55.224Z,94726.41
2022-11-09T18:56:24.587Z,94729.44
2022-11-09T18:58:54.233Z,94726.34
2022-11-09T19:01:26.915Z,94722.50
2022-11-09T19:04:00.436Z,94721.81
2022-11-09T19:06:47.494Z,94715.03
2022-11-09T19:09:31.561Z,94720.81
2022-11-09T19:12:00.967Z,94722.19
2022-11-09T19:14:28.827Z,94726.22
2022-11-09T19:16:56.742Z,94725.66
2022-11-09T19:19:24.831Z,94728.78
2022-11-09T19:21:53.453Z,94722.56
2022-11-09T19:24:43.180Z,94715.63
2022-11-09T19:27:09.987Z,94714.84
2022-11-09T19:29:37.239Z,94718.94
2022-11-09T19:32:04.330Z,94716.09
2022-11-09T19:34:31.076Z,94717.50
2022-11-09T19:36:58.130Z,94726.72
2022-11-09T19:39:28.402Z,94722.72
2022-11-09T19:41:59.309Z,94723.84
2022-11-09T19:44:25.976Z,94731.56
2022-11-09T19:46:52.901Z,94728.81
2022-11-09T19:49:19.628Z,94736.25
2022-11-09T19:51:46.273Z,94735.53
2022-11-09T19:54:13.996Z,94734.75
2022-11-09T19:56:40.690Z,94738.13
2022-11-09T19:59:07.733Z,94733.31
2022-11-09T20:01:34.637Z,94740.03
2022-11-09T20:04:05.140Z,94735.47
2022-11-09T20:06:36.669Z,94739.34
2022-11-09T20:09:03.898Z,94738.94
2022-11-09T20:11:49.278Z,94744.47
2022-11-09T20:14:16.075Z,94746.97
2022-11-09T20:16:44.504Z,94748.53
2022-11-09T20:19:12.825Z,94749.91
2022-11-09T20:21:41.397Z,94747.59
2022-11-09T20:24:11.259Z,94759.28
2022-11-09T20:26:42.420Z,94755.81
2022-11-09T20:29:10.100Z,94760.13
2022-11-09T20:31:37.448Z,94755.28
2022-11-09T20:34:04.488Z,94755.81
2022-11-09T20:36:31.268Z,94755.88
2022-11-09T20:38:59.432Z,94759.25
2022-11-09T20:41:26.416Z,94762.00
2022-11-09T20:43:53.686Z,94759.94
2022-11-09T20:46:23.307Z,94762.28
2022-11-09T20:48:54.540Z,94759.28
2022-11-09T20:51:23.423Z,94756.50
2022-11-09T20:53:50.852Z,94751.81
2022-11-09T20:56:19.001Z,94751.81
2022-11-09T20:58:46.079Z,94746.81
2022-11-09T21:01:12.785Z,94750.97
2022-11-09T21:03:39.582Z,94748.00
2022-11-09T21:06:07.982Z,94747.59
2022-11-09T21:08:34.763Z,94754.88
2022-11-09T21:11:02.928Z,94752.63
2022-11-09T21:13:29.852Z,94750.94
2022-11-09T21:15:56.796Z,94749.72
2022-11-09T21:18:23.755Z,94745.94
2022-11-09T21:20:50.596Z,94753.19
2022-11-09T21:23:17.179Z,94751.28
2022-11-09T21:26:03.187Z,94755.47
2022-11-09T21:28:48.506Z,94756.91
2022-11-09T21:31:15.105Z,94753.25
2022-11-09T21:33:41.756Z,94755.34
2022-11-09T21:36:12.895Z,94753.34
2022-11-09T21:38:39.592Z,94758.63
2022-11-09T21:41:27.654Z,94755.63
2022-11-09T21:43:55.139Z,94754.50
2022-11-09T21:46:23.857Z,94770.13
2022-11-09T21:48:50.863Z,94760.69
2022-11-09T21:51:17.608Z,94753.72
2022-11-09T21:53:44.287Z,94760.69
2022-11-09T21:56:11.299Z,94757.34
2022-11-09T21:58:37.900Z,94764.28
2022-11-09T22:01:10.662Z,94765.16
2022-11-09T22:03:37.990Z,94762.34
2022-11-09T22:06:05.295Z,94764.06
2022-11-09T22:08:31.912Z,94766.38
2022-11-09T22:12:01.795Z,94769.97
2022-11-09T22:14:53.494Z,94773.34
2022-11-09T22:17:20.213Z,94768.34
2022-11-09T22:20:05.150Z,94776.91
2022-11-09T22:22:38.098Z,94774.91
2022-11-09T22:25:13.903Z,94779.34
2022-11-09T22:30:31.838Z,94779.06
2022-11-09T22:32:58.696Z,94771.34
2022-11-09T22:35:25.310Z,94776.38
2022-11-09T22:37:51.919Z,94771.88
2022-11-09T22:40:18.676Z,94770.97
2022-11-09T22:42:45.267Z,94772.69
2022-11-09T22:45:12.209Z,94773.16
2022-11-09T22:47:38.803Z,94763.75
2022-11-09T22:50:05.894Z,94771.22
2022-11-09T22:52:32.535Z,94775.97
2022-11-09T22:54:59.177Z,94771.25
2022-11-09T22:57:33.004Z,94783.69
2022-11-09T23:00:01.739Z,94774.63
2022-11-09T23:02:37.998Z,94782.06
2022-11-09T23:05:10.620Z,94780.47
2022-11-09T23:07:37.249Z,94776.47
2022-11-09T23:10:04.649Z,94771.50
2022-11-09T23:12:33.330Z,94773.81
2022-11-09T23:15:04.038Z,94774.81
2022-11-09T23:17:56.760Z,94777.72
2022-11-09T23:20:23.694Z,94774.03
2022-11-09T23:22:50.259Z,94781.53
2022-11-09T23:25:35.677Z,94780.63
2022-11-09T23:28:02.891Z,94775.59
2022-11-09T23:30:29.694Z,94775.81
2022-11-09T23:32:56.357Z,94779.31
2022-11-09T23:35:22.925Z,94775.63
2022-11-09T23:38:00.699Z,94771.47
2022-11-09T23:40:28.635Z,94775.50
2022-11-09T23:43:09.748Z,94768.16
2022-11-09T23:45:39.100Z,94763.00
